sensor_id;sensor_type;location;lat;lon;timestamp;temperature;humidity
39493;DHT22;25176;51.060;3.720;2024-03-23T00:52:30;10.30;99.90
39493;DHT22;25176;51.060;3.720;2024-03-23T00:54:56;10.30;99.90
39493;DHT22;25176;51.060;3.720;2024-03-23T00:57:21;10.30;99.90
39493;DHT22;25176;51.060;3.720;2024-03-23T00:59:46;10.30;99.90
39493;DHT22;25176;51.060;3.720;2024-03-23T01:02:12;10.30;99.90
39493;DHT22;25176;51.060;3.720;2024-03-23T01:04:37;10.40;99.90
39493;DHT22;25176;51.060;3.720;2024-03-23T01:07:03;10.50;99.90
39493;DHT22;25176;51.060;3.720;2024-03-23T01:09:28;10.50;99.90
39493;DHT22;25176;51.060;3.720;2024-03-23T01:11:54;10.50;99.90
39493;DHT22;25176;51.060;3.720;2024-03-23T01:14:19;10.50;99.90
39493;DHT22;25176;51.060;3.720;2024-03-23T01:16:45;10.50;99.90
39493;DHT22;25176;51.060;3.720;2024-03-23T01:19:10;10.60;99.90
39493;DHT22;25176;51.060;3.720;2024-03-23T01:21:36;10.50;99.90
39493;DHT22;25176;51.060;3.720;2024-03-23T01:24:01;10.60;99.90
39493;DHT22;25176;51.060;3.720;2024-03-23T01:26:27;10.50;99.90
39493;DHT22;25176;51.060;3.720;2024-03-23T01:28:53;10.50;99.90
39493;DHT22;25176;51.060;3.720;2024-03-23T01:31:18;10.50;99.90
39493;DHT22;25176;51.060;3.720;2024-03-23T01:33:44;10.50;99.90
39493;DHT22;25176;51.060;3.720;2024-03-23T01:36:09;10.50;99.90
39493;DHT22;25176;51.060;3.720;2024-03-23T01:38:35;10.50;99.90
39493;DHT22;25176;51.060;3.720;2024-03-23T01:41:01;10.50;99.90
39493;DHT22;25176;51.060;3.720;2024-03-23T01:43:27;10.40;99.90
39493;DHT22;25176;51.060;3.720;2024-03-23T01:45:52;10.40;99.90
39493;DHT22;25176;51.060;3.720;2024-03-23T01:48:19;10.30;99.90
39493;DHT22;25176;51.060;3.720;2024-03-23T01:50:44;10.30;99.90
39493;DHT22;25176;51.060;3.720;2024-03-23T01:53:10;10.20;99.90
39493;DHT22;25176;51.060;3.720;2024-03-23T01:55:36;10.20;99.90
39493;DHT22;25176;51.060;3.720;2024-03-23T01:58:01;10.20;99.90
39493;DHT22;25176;51.060;3.720;2024-03-23T02:00:27;10.10;99.90
39493;DHT22;25176;51.060;3.720;2024-03-23T02:02:53;10.00;99.90
39493;DHT22;25176;51.060;3.720;2024-03-23T02:05:18;10.00;99.90
39493;DHT22;25176;51.060;3.720;2024-03-23T02:07:44;10.00;99.90
39493;DHT22;25176;51.060;3.720;2024-03-23T02:10:10;9.90;99.90
39493;DHT22;25176;51.060;3.720;2024-03-23T02:12:36;10.00;99.90
39493;DHT22;25176;51.060;3.720;2024-03-23T02:15:01;10.00;99.90
39493;DHT22;25176;51.060;3.720;2024-03-23T02:17:27;10.00;99.90
39493;DHT22;25176;51.060;3.720;2024-03-23T02:19:53;10.00;99.90
39493;DHT22;25176;51.060;3.720;2024-03-23T02:22:18;10.00;99.90
39493;DHT22;25176;51.060;3.720;2024-03-23T02:24:44;10.10;99.90
39493;DHT22;25176;51.060;3.720;2024-03-23T02:27:09;10.10;99.90
39493;DHT22;25176;51.060;3.720;2024-03-23T02:29:35;10.10;99.90
39493;DHT22;25176;51.060;3.720;2024-03-23T02:32:00;10.10;99.90
39493;DHT22;25176;51.060;3.720;2024-03-23T02:34:26;10.20;99.90
39493;DHT22;25176;51.060;3.720;2024-03-23T02:36:52;10.20;99.90
39493;DHT22;25176;51.060;3.720;2024-03-23T02:39:17;10.20;99.90
39493;DHT22;25176;51.060;3.720;2024-03-23T02:41:43;10.20;99.70
39493;DHT22;25176;51.060;3.720;2024-03-23T02:44:08;10.20;99.50
39493;DHT22;25176;51.060;3.720;2024-03-23T02:46:37;10.10;99.80
39493;DHT22;25176;51.060;3.720;2024-03-23T02:49:03;10.10;99.30
39493;DHT22;25176;51.060;3.720;2024-03-23T02:51:29;10.20;99.30
39493;DHT22;25176;51.060;3.720;2024-03-23T02:53:55;10.20;99.20
39493;DHT22;25176;51.060;3.720;2024-03-23T02:56:21;10.20;98.80
39493;DHT22;25176;51.060;3.720;2024-03-23T02:58:47;10.20;98.70
39493;DHT22;25176;51.060;3.720;2024-03-23T03:01:12;10.10;98.80
39493;DHT22;25176;51.060;3.720;2024-03-23T03:03:38;10.20;98.70
39493;DHT22;25176;51.060;3.720;2024-03-23T03:06:03;10.10;98.60
39493;DHT22;25176;51.060;3.720;2024-03-23T03:08:29;10.10;98.60
39493;DHT22;25176;51.060;3.720;2024-03-23T03:10:54;10.10;98.50
39493;DHT22;25176;51.060;3.720;2024-03-23T03:13:20;10.10;98.60
39493;DHT22;25176;51.060;3.720;2024-03-23T03:15:45;10.00;98.70
39493;DHT22;25176;51.060;3.720;2024-03-23T03:18:11;10.00;98.60
39493;DHT22;25176;51.060;3.720;2024-03-23T03:20:39;10.00;98.60
39493;DHT22;25176;51.060;3.720;2024-03-23T03:23:05;10.00;98.60
39493;DHT22;25176;51.060;3.720;2024-03-23T03:25:31;10.00;98.30
39493;DHT22;25176;51.060;3.720;2024-03-23T03:27:56;9.90;98.20
39493;DHT22;25176;51.060;3.720;2024-03-23T03:30:22;9.90;98.20
39493;DHT22;25176;51.060;3.720;2024-03-23T03:32:47;9.80;98.30
39493;DHT22;25176;51.060;3.720;2024-03-23T03:35:13;9.80;98.50
39493;DHT22;25176;51.060;3.720;2024-03-23T03:37:38;9.80;98.30
39493;DHT22;25176;51.060;3.720;2024-03-23T03:40:04;9.70;98.30
39493;DHT22;25176;51.060;3.720;2024-03-23T03:42:29;9.70;98.30
39493;DHT22;25176;51.060;3.720;2024-03-23T03:44:55;9.60;98.40
39493;DHT22;25176;51.060;3.720;2024-03-23T03:47:20;9.60;98.60
39493;DHT22;25176;51.060;3.720;2024-03-23T03:49:47;9.60;98.60
39493;DHT22;25176;51.060;3.720;2024-03-23T03:52:12;9.60;98.40
39493;DHT22;25176;51.060;3.720;2024-03-23T03:54:38;9.50;98.10
39493;DHT22;25176;51.060;3.720;2024-03-23T03:57:03;9.50;98.00
39493;DHT22;25176;51.060;3.720;2024-03-23T03:59:29;9.50;98.20
39493;DHT22;25176;51.060;3.720;2024-03-23T04:01:54;9.50;98.00
39493;DHT22;25176;51.060;3.720;2024-03-23T04:04:20;9.50;97.80
39493;DHT22;25176;51.060;3.720;2024-03-23T04:06:45;9.50;97.80
39493;DHT22;25176;51.060;3.720;2024-03-23T04:09:11;9.50;97.70
39493;DHT22;25176;51.060;3.720;2024-03-23T04:11:36;9.50;97.60
39493;DHT22;25176;51.060;3.720;2024-03-23T04:14:02;9.50;97.80
39493;DHT22;25176;51.060;3.720;2024-03-23T04:16:33;9.50;97.60
39493;DHT22;25176;51.060;3.720;2024-03-23T04:18:59;9.50;97.70
39493;DHT22;25176;51.060;3.720;2024-03-23T04:21:24;9.40;97.70
39493;DHT22;25176;51.060;3.720;2024-03-23T04:23:49;9.40;97.90
39493;DHT22;25176;51.060;3.720;2024-03-23T04:26:15;9.40;97.70
39493;DHT22;25176;51.060;3.720;2024-03-23T04:28:41;9.40;97.70
39493;DHT22;25176;51.060;3.720;2024-03-23T04:31:06;9.40;97.50
39493;DHT22;25176;51.060;3.720;2024-03-23T04:33:32;9.40;97.50
39493;DHT22;25176;51.060;3.720;2024-03-23T04:35:57;9.40;98.00
39493;DHT22;25176;51.060;3.720;2024-03-23T04:38:23;9.40;97.70
39493;DHT22;25176;51.060;3.720;2024-03-23T04:40:57;9.40;97.50
39493;DHT22;25176;51.060;3.720;2024-03-23T04:43:23;9.50;97.70
39493;DHT22;25176;51.060;3.720;2024-03-23T04:45:49;9.50;97.60
39493;DHT22;25176;51.060;3.720;2024-03-23T04:48:14;9.40;97.70
39493;DHT22;25176;51.060;3.720;2024-03-23T04:50:40;9.40;98.00
39493;DHT22;25176;51.060;3.720;2024-03-23T04:53:06;9.30;98.40
39493;DHT22;25176;51.060;3.720;2024-03-23T04:55:32;9.20;98.40
39493;DHT22;25176;51.060;3.720;2024-03-23T04:57:58;9.30;98.30
39493;DHT22;25176;51.060;3.720;2024-03-23T05:00:23;9.20;98.50
39493;DHT22;25176;51.060;3.720;2024-03-23T05:02:48;9.30;98.40
39493;DHT22;25176;51.060;3.720;2024-03-23T05:05:14;9.40;98.40
39493;DHT22;25176;51.060;3.720;2024-03-23T05:07:40;9.40;98.40
39493;DHT22;25176;51.060;3.720;2024-03-23T05:10:07;9.40;98.30
39493;DHT22;25176;51.060;3.720;2024-03-23T05:12:35;9.40;98.40
39493;DHT22;25176;51.060;3.720;2024-03-23T05:15:01;9.40;98.60
39493;DHT22;25176;51.060;3.720;2024-03-23T05:17:26;9.40;98.60
39493;DHT22;25176;51.060;3.720;2024-03-23T05:19:52;9.40;98.60
39493;DHT22;25176;51.060;3.720;2024-03-23T05:22:17;9.40;98.70
39493;DHT22;25176;51.060;3.720;2024-03-23T05:24:44;9.30;98.80
39493;DHT22;25176;51.060;3.720;2024-03-23T05:27:10;9.40;98.70
39493;DHT22;25176;51.060;3.720;2024-03-23T05:29:35;9.50;98.70
39493;DHT22;25176;51.060;3.720;2024-03-23T05:32:01;9.60;98.60
39493;DHT22;25176;51.060;3.720;2024-03-23T05:34:26;9.50;98.40
39493;DHT22;25176;51.060;3.720;2024-03-23T05:36:53;9.50;98.40
39493;DHT22;25176;51.060;3.720;2024-03-23T05:39:19;9.50;98.50
39493;DHT22;25176;51.060;3.720;2024-03-23T05:41:47;9.50;98.40
39493;DHT22;25176;51.060;3.720;2024-03-23T05:44:13;9.40;98.30
39493;DHT22;25176;51.060;3.720;2024-03-23T05:46:39;9.30;98.50
39493;DHT22;25176;51.060;3.720;2024-03-23T05:49:04;9.40;98.60
39493;DHT22;25176;51.060;3.720;2024-03-23T05:51:30;9.30;98.60
39493;DHT22;25176;51.060;3.720;2024-03-23T05:53:55;9.30;98.70
39493;DHT22;25176;51.060;3.720;2024-03-23T05:56:21;9.30;98.80
39493;DHT22;25176;51.060;3.720;2024-03-23T05:58:46;9.30;98.90
39493;DHT22;25176;51.060;3.720;2024-03-23T06:01:12;9.40;98.50
39493;DHT22;25176;51.060;3.720;2024-03-23T06:03:38;9.30;98.60
39493;DHT22;25176;51.060;3.720;2024-03-23T06:06:03;9.30;98.70
39493;DHT22;25176;51.060;3.720;2024-03-23T06:08:29;9.30;99.00
39493;DHT22;25176;51.060;3.720;2024-03-23T06:10:55;9.40;99.00
39493;DHT22;25176;51.060;3.720;2024-03-23T06:13:20;9.50;99.20
39493;DHT22;25176;51.060;3.720;2024-03-23T06:15:50;9.60;99.10
39493;DHT22;25176;51.060;3.720;2024-03-23T06:18:15;9.60;98.70
39493;DHT22;25176;51.060;3.720;2024-03-23T06:20:41;9.60;98.90
39493;DHT22;25176;51.060;3.720;2024-03-23T06:23:06;9.60;98.90
39493;DHT22;25176;51.060;3.720;2024-03-23T06:25:32;9.60;98.90
39493;DHT22;25176;51.060;3.720;2024-03-23T06:27:57;9.60;98.90
39493;DHT22;25176;51.060;3.720;2024-03-23T06:30:27;9.50;98.90
39493;DHT22;25176;51.060;3.720;2024-03-23T06:32:54;9.50;99.10
39493;DHT22;25176;51.060;3.720;2024-03-23T06:35:20;9.40;99.10
39493;DHT22;25176;51.060;3.720;2024-03-23T06:37:45;9.10;99.00
39493;DHT22;25176;51.060;3.720;2024-03-23T06:40:11;9.00;99.60
39493;DHT22;25176;51.060;3.720;2024-03-23T06:42:36;9.00;99.60
39493;DHT22;25176;51.060;3.720;2024-03-23T06:45:02;9.00;99.20
39493;DHT22;25176;51.060;3.720;2024-03-23T06:47:30;8.90;99.00
39493;DHT22;25176;51.060;3.720;2024-03-23T06:49:55;9.00;99.10
39493;DHT22;25176;51.060;3.720;2024-03-23T06:52:21;9.10;99.00
39493;DHT22;25176;51.060;3.720;2024-03-23T06:54:46;9.30;99.10
39493;DHT22;25176;51.060;3.720;2024-03-23T06:57:12;9.40;98.80
39493;DHT22;25176;51.060;3.720;2024-03-23T06:59:37;9.50;98.40
39493;DHT22;25176;51.060;3.720;2024-03-23T07:02:04;9.50;98.20
39493;DHT22;25176;51.060;3.720;2024-03-23T07:04:30;9.50;98.60
39493;DHT22;25176;51.060;3.720;2024-03-23T07:06:55;9.60;98.30
39493;DHT22;25176;51.060;3.720;2024-03-23T07:09:21;9.80;98.30
39493;DHT22;25176;51.060;3.720;2024-03-23T07:11:50;9.90;98.10
39493;DHT22;25176;51.060;3.720;2024-03-23T07:14:16;9.90;97.80
39493;DHT22;25176;51.060;3.720;2024-03-23T07:16:41;9.90;97.70
39493;DHT22;25176;51.060;3.720;2024-03-23T07:19:06;9.90;97.80
39493;DHT22;25176;51.060;3.720;2024-03-23T07:21:32;9.90;97.90
39493;DHT22;25176;51.060;3.720;2024-03-23T07:23:57;9.80;97.70
39493;DHT22;25176;51.060;3.720;2024-03-23T07:26:23;9.80;98.00
39493;DHT22;25176;51.060;3.720;2024-03-23T07:28:48;10.00;98.10
39493;DHT22;25176;51.060;3.720;2024-03-23T07:31:14;10.20;98.10
39493;DHT22;25176;51.060;3.720;2024-03-23T07:33:44;10.30;97.70
39493;DHT22;25176;51.060;3.720;2024-03-23T07:36:10;10.40;98.00
39493;DHT22;25176;51.060;3.720;2024-03-23T07:38:36;10.60;97.70
39493;DHT22;25176;51.060;3.720;2024-03-23T07:41:08;10.40;97.70
39493;DHT22;25176;51.060;3.720;2024-03-23T07:43:34;10.20;97.20
39493;DHT22;25176;51.060;3.720;2024-03-23T07:46:00;9.90;97.60
39493;DHT22;25176;51.060;3.720;2024-03-23T07:48:26;9.70;97.70
39493;DHT22;25176;51.060;3.720;2024-03-23T07:53:23;9.60;98.40
39493;DHT22;25176;51.060;3.720;2024-03-23T07:55:52;9.60;98.80
39493;DHT22;25176;51.060;3.720;2024-03-23T07:58:18;9.90;99.10
39493;DHT22;25176;51.060;3.720;2024-03-23T08:00:43;11.70;99.30
39493;DHT22;25176;51.060;3.720;2024-03-23T08:03:09;14.20;95.80
39493;DHT22;25176;51.060;3.720;2024-03-23T08:05:34;16.10;91.80
39493;DHT22;25176;51.060;3.720;2024-03-23T08:08:00;18.50;88.30
39493;DHT22;25176;51.060;3.720;2024-03-23T08:10:25;19.40;83.20
39493;DHT22;25176;51.060;3.720;2024-03-23T08:12:51;21.20;78.60
39493;DHT22;25176;51.060;3.720;2024-03-23T08:15:16;23.30;71.70
39493;DHT22;25176;51.060;3.720;2024-03-23T08:17:42;24.80;68.70
39493;DHT22;25176;51.060;3.720;2024-03-23T08:20:07;26.20;65.00
39493;DHT22;25176;51.060;3.720;2024-03-23T08:22:33;26.70;60.90
39493;DHT22;25176;51.060;3.720;2024-03-23T08:24:58;27.40;59.20
39493;DHT22;25176;51.060;3.720;2024-03-23T08:27:24;28.10;58.20
39493;DHT22;25176;51.060;3.720;2024-03-23T08:29:49;28.10;57.00
39493;DHT22;25176;51.060;3.720;2024-03-23T08:32:15;28.00;57.10
39493;DHT22;25176;51.060;3.720;2024-03-23T08:34:42;26.70;57.00
39493;DHT22;25176;51.060;3.720;2024-03-23T08:40:10;21.90;61.90
39493;DHT22;25176;51.060;3.720;2024-03-23T08:42:35;19.50;67.30
39493;DHT22;25176;51.060;3.720;2024-03-23T08:45:01;17.60;70.50
39493;DHT22;25176;51.060;3.720;2024-03-23T08:47:26;15.90;74.30
39493;DHT22;25176;51.060;3.720;2024-03-23T08:49:52;15.10;78.20
39493;DHT22;25176;51.060;3.720;2024-03-23T08:52:17;14.60;80.40
39493;DHT22;25176;51.060;3.720;2024-03-23T08:54:43;15.10;80.20
39493;DHT22;25176;51.060;3.720;2024-03-23T08:57:08;16.40;79.40
39493;DHT22;25176;51.060;3.720;2024-03-23T08:59:34;19.20;72.80
39493;DHT22;25176;51.060;3.720;2024-03-23T09:02:00;22.10;66.70
39493;DHT22;25176;51.060;3.720;2024-03-23T09:04:25;20.90;66.20
39493;DHT22;25176;51.060;3.720;2024-03-23T09:06:51;20.10;66.20
39493;DHT22;25176;51.060;3.720;2024-03-23T09:09:17;20.30;65.90
39493;DHT22;25176;51.060;3.720;2024-03-23T09:11:42;19.70;66.30
39493;DHT22;25176;51.060;3.720;2024-03-23T09:14:08;19.50;66.50
39493;DHT22;25176;51.060;3.720;2024-03-23T09:16:34;18.80;67.20
39493;DHT22;25176;51.060;3.720;2024-03-23T09:19:00;18.90;69.70
39493;DHT22;25176;51.060;3.720;2024-03-23T09:21:25;20.30;66.60
39493;DHT22;25176;51.060;3.720;2024-03-23T09:23:51;21.20;64.80
39493;DHT22;25176;51.060;3.720;2024-03-23T09:26:16;23.10;61.90
39493;DHT22;25176;51.060;3.720;2024-03-23T09:28:42;23.60;58.60
39493;DHT22;25176;51.060;3.720;2024-03-23T09:31:08;21.90;59.30
39493;DHT22;25176;51.060;3.720;2024-03-23T09:33:35;20.90;61.30
39493;DHT22;25176;51.060;3.720;2024-03-23T09:36:04;19.80;62.70
39493;DHT22;25176;51.060;3.720;2024-03-23T09:38:29;18.50;65.90
39493;DHT22;25176;51.060;3.720;2024-03-23T09:40:55;18.50;64.70
39493;DHT22;25176;51.060;3.720;2024-03-23T09:43:21;19.30;64.50
39493;DHT22;25176;51.060;3.720;2024-03-23T09:45:47;22.00;60.80
39493;DHT22;25176;51.060;3.720;2024-03-23T09:48:14;23.80;58.30
39493;DHT22;25176;51.060;3.720;2024-03-23T09:50:39;26.40;56.50
39493;DHT22;25176;51.060;3.720;2024-03-23T09:53:08;28.10;53.70
39493;DHT22;25176;51.060;3.720;2024-03-23T09:55:34;29.10;53.50
39493;DHT22;25176;51.060;3.720;2024-03-23T09:58:03;29.30;51.00
39493;DHT22;25176;51.060;3.720;2024-03-23T10:00:30;28.00;50.30
39493;DHT22;25176;51.060;3.720;2024-03-23T10:02:56;24.60;51.50
39493;DHT22;25176;51.060;3.720;2024-03-23T10:05:26;21.30;55.90
39493;DHT22;25176;51.060;3.720;2024-03-23T10:07:53;18.50;60.60
39493;DHT22;25176;51.060;3.720;2024-03-23T10:10:18;18.00;64.10
39493;DHT22;25176;51.060;3.720;2024-03-23T10:12:45;19.30;62.70
39493;DHT22;25176;51.060;3.720;2024-03-23T10:15:19;21.80;58.40
39493;DHT22;25176;51.060;3.720;2024-03-23T10:17:45;23.20;55.20
39493;DHT22;25176;51.060;3.720;2024-03-23T10:20:11;23.90;55.00
39493;DHT22;25176;51.060;3.720;2024-03-23T10:22:39;25.00;53.80
39493;DHT22;25176;51.060;3.720;2024-03-23T10:25:08;25.00;54.10
39493;DHT22;25176;51.060;3.720;2024-03-23T10:27:34;26.00;54.00
39493;DHT22;25176;51.060;3.720;2024-03-23T10:30:07;25.50;53.80
39493;DHT22;25176;51.060;3.720;2024-03-23T10:32:32;25.70;51.90
39493;DHT22;25176;51.060;3.720;2024-03-23T10:35:13;24.60;53.40
39493;DHT22;25176;51.060;3.720;2024-03-23T10:37:39;23.40;53.60
39493;DHT22;25176;51.060;3.720;2024-03-23T10:40:04;21.80;55.20
39493;DHT22;25176;51.060;3.720;2024-03-23T10:42:30;20.70;57.20
39493;DHT22;25176;51.060;3.720;2024-03-23T10:44:58;19.70;58.00
39493;DHT22;25176;51.060;3.720;2024-03-23T10:47:25;18.20;60.50
39493;DHT22;25176;51.060;3.720;2024-03-23T10:49:51;17.90;61.90
39493;DHT22;25176;51.060;3.720;2024-03-23T10:52:16;17.70;62.30
39493;DHT22;25176;51.060;3.720;2024-03-23T10:54:42;17.00;63.40
39493;DHT22;25176;51.060;3.720;2024-03-23T10:57:10;16.00;64.90
39493;DHT22;25176;51.060;3.720;2024-03-23T10:59:39;16.10;67.40
39493;DHT22;25176;51.060;3.720;2024-03-23T11:02:05;15.90;65.80
39493;DHT22;25176;51.060;3.720;2024-03-23T11:04:33;15.60;65.60
39493;DHT22;25176;51.060;3.720;2024-03-23T11:06:59;15.30;66.50
39493;DHT22;25176;51.060;3.720;2024-03-23T11:12:08;14.80;68.20
39493;DHT22;25176;51.060;3.720;2024-03-23T11:14:42;14.70;68.10
39493;DHT22;25176;51.060;3.720;2024-03-23T11:17:08;14.50;69.40
39493;DHT22;25176;51.060;3.720;2024-03-23T11:19:35;14.30;70.10
39493;DHT22;25176;51.060;3.720;2024-03-23T11:22:04;14.00;71.50
39493;DHT22;25176;51.060;3.720;2024-03-23T11:24:30;14.00;72.40
39493;DHT22;25176;51.060;3.720;2024-03-23T11:26:56;13.90;72.10
39493;DHT22;25176;51.060;3.720;2024-03-23T11:29:21;13.80;73.10
39493;DHT22;25176;51.060;3.720;2024-03-23T11:31:47;14.00;72.90
39493;DHT22;25176;51.060;3.720;2024-03-23T11:34:13;14.30;70.30
39493;DHT22;25176;51.060;3.720;2024-03-23T11:36:40;14.40;70.70
39493;DHT22;25176;51.060;3.720;2024-03-23T11:39:15;14.30;69.90
39493;DHT22;25176;51.060;3.720;2024-03-23T11:41:47;14.20;70.00
39493;DHT22;25176;51.060;3.720;2024-03-23T11:46:41;14.10;71.60
39493;DHT22;25176;51.060;3.720;2024-03-23T11:49:06;14.20;70.40
39493;DHT22;25176;51.060;3.720;2024-03-23T11:51:32;14.30;71.30
39493;DHT22;25176;51.060;3.720;2024-03-23T11:54:07;14.30;69.80
39493;DHT22;25176;51.060;3.720;2024-03-23T11:56:32;14.20;70.90
39493;DHT22;25176;51.060;3.720;2024-03-23T11:58:58;14.20;70.40
39493;DHT22;25176;51.060;3.720;2024-03-23T12:01:24;14.20;70.20
39493;DHT22;25176;51.060;3.720;2024-03-23T12:03:49;14.00;68.40
39493;DHT22;25176;51.060;3.720;2024-03-23T12:06:19;13.90;68.40
39493;DHT22;25176;51.060;3.720;2024-03-23T12:08:45;13.70;69.00
39493;DHT22;25176;51.060;3.720;2024-03-23T12:11:11;13.70;69.80
39493;DHT22;25176;51.060;3.720;2024-03-23T12:13:37;13.50;69.20
39493;DHT22;25176;51.060;3.720;2024-03-23T12:16:09;13.60;70.40
39493;DHT22;25176;51.060;3.720;2024-03-23T12:18:35;13.70;71.40
39493;DHT22;25176;51.060;3.720;2024-03-23T12:21:00;13.80;70.70
39493;DHT22;25176;51.060;3.720;2024-03-23T12:23:25;13.90;68.80
39493;DHT22;25176;51.060;3.720;2024-03-23T12:25:51;13.90;68.60
39493;DHT22;25176;51.060;3.720;2024-03-23T12:28:16;13.90;68.90
39493;DHT22;25176;51.060;3.720;2024-03-23T12:30:42;14.00;68.90
39493;DHT22;25176;51.060;3.720;2024-03-23T12:33:08;14.00;70.00
39493;DHT22;25176;51.060;3.720;2024-03-23T12:35:33;13.90;70.40
39493;DHT22;25176;51.060;3.720;2024-03-23T12:37:59;13.90;69.30
39493;DHT22;25176;51.060;3.720;2024-03-23T12:40:24;14.00;68.80
39493;DHT22;25176;51.060;3.720;2024-03-23T12:42:50;14.10;68.60
39493;DHT22;25176;51.060;3.720;2024-03-23T12:45:15;14.20;67.50
39493;DHT22;25176;51.060;3.720;2024-03-23T12:47:42;14.10;67.60
39493;DHT22;25176;51.060;3.720;2024-03-23T12:50:07;13.90;67.50
39493;DHT22;25176;51.060;3.720;2024-03-23T12:52:33;14.00;68.70
39493;DHT22;25176;51.060;3.720;2024-03-23T12:54:58;14.10;68.50
39493;DHT22;25176;51.060;3.720;2024-03-23T12:57:24;14.00;66.40
39493;DHT22;25176;51.060;3.720;2024-03-23T12:59:50;14.00;66.40
39493;DHT22;25176;51.060;3.720;2024-03-23T13:02:19;14.10;66.10
39493;DHT22;25176;51.060;3.720;2024-03-23T13:04:46;13.90;66.60
39493;DHT22;25176;51.060;3.720;2024-03-23T13:07:11;14.00;68.20
39493;DHT22;25176;51.060;3.720;2024-03-23T13:09:37;13.70;69.30
39493;DHT22;25176;51.060;3.720;2024-03-23T13:12:03;13.50;70.20
39493;DHT22;25176;51.060;3.720;2024-03-23T13:14:29;13.70;70.70
39493;DHT22;25176;51.060;3.720;2024-03-23T13:16:54;13.90;70.30
39493;DHT22;25176;51.060;3.720;2024-03-23T13:19:19;14.10;69.60
39493;DHT22;25176;51.060;3.720;2024-03-23T13:21:45;14.20;69.10
39493;DHT22;25176;51.060;3.720;2024-03-23T13:24:10;14.00;69.50
39493;DHT22;25176;51.060;3.720;2024-03-23T13:26:36;13.80;69.00
39493;DHT22;25176;51.060;3.720;2024-03-23T13:29:02;13.60;69.50
39493;DHT22;25176;51.060;3.720;2024-03-23T13:31:27;13.30;69.40
39493;DHT22;25176;51.060;3.720;2024-03-23T13:33:53;13.30;69.70
39493;DHT22;25176;51.060;3.720;2024-03-23T13:36:18;13.20;70.40
39493;DHT22;25176;51.060;3.720;2024-03-23T13:38:44;13.40;68.30
39493;DHT22;25176;51.060;3.720;2024-03-23T13:41:09;13.40;65.70
39493;DHT22;25176;51.060;3.720;2024-03-23T13:43:37;13.50;66.10
39493;DHT22;25176;51.060;3.720;2024-03-23T13:46:03;13.70;66.20
39493;DHT22;25176;51.060;3.720;2024-03-23T13:48:28;13.70;66.70
39493;DHT22;25176;51.060;3.720;2024-03-23T13:51:00;13.80;65.30
39493;DHT22;25176;51.060;3.720;2024-03-23T13:53:26;13.80;65.60
39493;DHT22;25176;51.060;3.720;2024-03-23T13:55:51;13.70;66.40
39493;DHT22;25176;51.060;3.720;2024-03-23T13:58:17;13.60;67.40
39493;DHT22;25176;51.060;3.720;2024-03-23T14:00:42;13.70;66.70
39493;DHT22;25176;51.060;3.720;2024-03-23T14:03:08;13.70;67.40
39493;DHT22;25176;51.060;3.720;2024-03-23T14:05:34;13.70;67.20
39493;DHT22;25176;51.060;3.720;2024-03-23T14:07:59;13.70;66.50
39493;DHT22;25176;51.060;3.720;2024-03-23T14:10:25;14.00;66.90
39493;DHT22;25176;51.060;3.720;2024-03-23T14:12:51;14.00;66.60
39493;DHT22;25176;51.060;3.720;2024-03-23T14:15:16;13.90;66.20
39493;DHT22;25176;51.060;3.720;2024-03-23T14:17:43;14.00;65.90
39493;DHT22;25176;51.060;3.720;2024-03-23T14:20:09;13.90;65.80
39493;DHT22;25176;51.060;3.720;2024-03-23T14:22:36;13.90;65.40
39493;DHT22;25176;51.060;3.720;2024-03-23T14:25:02;13.90;65.10
39493;DHT22;25176;51.060;3.720;2024-03-23T14:27:28;13.60;65.50
39493;DHT22;25176;51.060;3.720;2024-03-23T14:29:53;13.60;66.50
39493;DHT22;25176;51.060;3.720;2024-03-23T14:32:19;13.60;66.40
39493;DHT22;25176;51.060;3.720;2024-03-23T14:34:44;13.60;65.50
39493;DHT22;25176;51.060;3.720;2024-03-23T14:37:10;13.70;66.50
39493;DHT22;25176;51.060;3.720;2024-03-23T14:39:35;13.90;66.50
39493;DHT22;25176;51.060;3.720;2024-03-23T14:42:01;14.00;66.90
39493;DHT22;25176;51.060;3.720;2024-03-23T14:44:27;14.20;67.90
39493;DHT22;25176;51.060;3.720;2024-03-23T14:46:53;13.90;68.60
39493;DHT22;25176;51.060;3.720;2024-03-23T14:49:19;13.90;69.00
39493;DHT22;25176;51.060;3.720;2024-03-23T14:51:44;13.80;69.70
39493;DHT22;25176;51.060;3.720;2024-03-23T14:54:12;13.50;68.30
39493;DHT22;25176;51.060;3.720;2024-03-23T14:56:38;13.20;66.70
39493;DHT22;25176;51.060;3.720;2024-03-23T14:59:04;13.10;66.30
39493;DHT22;25176;51.060;3.720;2024-03-23T15:01:29;12.90;66.30
39493;DHT22;25176;51.060;3.720;2024-03-23T15:03:55;12.80;65.80
39493;DHT22;25176;51.060;3.720;2024-03-23T15:06:20;12.80;66.40
39493;DHT22;25176;51.060;3.720;2024-03-23T15:08:46;12.90;66.60
39493;DHT22;25176;51.060;3.720;2024-03-23T15:11:11;13.00;68.40
39493;DHT22;25176;51.060;3.720;2024-03-23T15:13:37;13.20;69.40
39493;DHT22;25176;51.060;3.720;2024-03-23T15:16:03;13.30;69.40
39493;DHT22;25176;51.060;3.720;2024-03-23T15:18:29;13.40;69.70
39493;DHT22;25176;51.060;3.720;2024-03-23T15:20:55;13.40;70.90
39493;DHT22;25176;51.060;3.720;2024-03-23T15:23:21;13.40;70.60
39493;DHT22;25176;51.060;3.720;2024-03-23T15:26:00;13.20;72.10
39493;DHT22;25176;51.060;3.720;2024-03-23T15:28:26;13.20;71.80
39493;DHT22;25176;51.060;3.720;2024-03-23T15:31:09;13.20;71.30
39493;DHT22;25176;51.060;3.720;2024-03-23T15:33:35;13.30;70.80
39493;DHT22;25176;51.060;3.720;2024-03-23T15:36:02;13.30;70.10
39493;DHT22;25176;51.060;3.720;2024-03-23T15:38:27;13.30;69.80
39493;DHT22;25176;51.060;3.720;2024-03-23T15:40:54;13.20;70.30
39493;DHT22;25176;51.060;3.720;2024-03-23T15:43:20;13.10;72.10
39493;DHT22;25176;51.060;3.720;2024-03-23T15:48:20;12.50;76.70
39493;DHT22;25176;51.060;3.720;2024-03-23T15:50:59;12.10;77.10
39493;DHT22;25176;51.060;3.720;2024-03-23T15:53:25;12.00;78.70
39493;DHT22;25176;51.060;3.720;2024-03-23T15:58:20;11.80;79.40
39493;DHT22;25176;51.060;3.720;2024-03-23T16:00:53;11.70;79.40
39493;DHT22;25176;51.060;3.720;2024-03-23T16:03:19;11.90;79.50
39493;DHT22;25176;51.060;3.720;2024-03-23T16:05:49;12.00;79.10
39493;DHT22;25176;51.060;3.720;2024-03-23T16:08:15;12.00;79.00
39493;DHT22;25176;51.060;3.720;2024-03-23T16:10:40;12.00;78.00
39493;DHT22;25176;51.060;3.720;2024-03-23T16:13:06;11.90;78.00
39493;DHT22;25176;51.060;3.720;2024-03-23T16:15:31;11.60;79.40
39493;DHT22;25176;51.060;3.720;2024-03-23T16:17:57;11.50;82.10
39493;DHT22;25176;51.060;3.720;2024-03-23T16:20:22;11.40;81.00
39493;DHT22;25176;51.060;3.720;2024-03-23T16:22:48;11.50;81.00
39493;DHT22;25176;51.060;3.720;2024-03-23T16:25:14;11.50;80.40
39493;DHT22;25176;51.060;3.720;2024-03-23T16:27:39;11.50;80.90
39493;DHT22;25176;51.060;3.720;2024-03-23T16:30:05;11.50;80.90
39493;DHT22;25176;51.060;3.720;2024-03-23T16:32:32;11.40;81.00
39493;DHT22;25176;51.060;3.720;2024-03-23T16:35:00;11.30;81.70